sensor_id;sensor_type;location;lat;lon;timestamp;temperature;humidity
19252;DHT22;9760;50.944;5.304;2023-12-20T00:00:54;6.70;99.90
19252;DHT22;9760;50.944;5.304;2023-12-20T00:03:20;6.60;99.90
19252;DHT22;9760;50.944;5.304;2023-12-20T00:05:46;6.60;99.90
19252;DHT22;9760;50.944;5.304;2023-12-20T00:08:12;6.60;99.90
19252;DHT22;9760;50.944;5.304;2023-12-20T00:10:38;6.50;99.90
19252;DHT22;9760;50.944;5.304;2023-12-20T00:13:03;6.50;99.90
19252;DHT22;9760;50.944;5.304;2023-12-20T00:15:29;6.50;99.90
19252;DHT22;9760;50.944;5.304;2023-12-20T00:17:54;6.40;99.90
19252;DHT22;9760;50.944;5.304;2023-12-20T00:20:20;6.40;99.90
19252;DHT22;9760;50.944;5.304;2023-12-20T00:22:46;6.40;99.90
19252;DHT22;9760;50.944;5.304;2023-12-20T00:25:11;6.40;99.90
19252;DHT22;9760;50.944;5.304;2023-12-20T00:27:37;6.40;99.90
19252;DHT22;9760;50.944;5.304;2023-12-20T00:30:03;6.30;99.90
19252;DHT22;9760;50.944;5.304;2023-12-20T00:32:29;6.30;99.90
19252;DHT22;9760;50.944;5.304;2023-12-20T00:34:54;6.20;99.90
19252;DHT22;9760;50.944;5.304;2023-12-20T00:37:21;6.20;99.90
19252;DHT22;9760;50.944;5.304;2023-12-20T00:39:48;6.10;99.90
19252;DHT22;9760;50.944;5.304;2023-12-20T00:42:13;6.10;99.90
19252;DHT22;9760;50.944;5.304;2023-12-20T00:44:39;6.10;99.90
19252;DHT22;9760;50.944;5.304;2023-12-20T00:47:04;6.10;99.90
19252;DHT22;9760;50.944;5.304;2023-12-20T00:49:30;6.10;99.90
19252;DHT22;9760;50.944;5.304;2023-12-20T00:51:56;6.10;99.90
19252;DHT22;9760;50.944;5.304;2023-12-20T00:54:21;6.10;99.90
19252;DHT22;9760;50.944;5.304;2023-12-20T00:56:47;6.10;99.90
19252;DHT22;9760;50.944;5.304;2023-12-20T00:59:13;6.10;99.90
19252;DHT22;9760;50.944;5.304;2023-12-20T01:01:38;6.00;99.90
19252;DHT22;9760;50.944;5.304;2023-12-20T01:04:04;6.10;99.90
19252;DHT22;9760;50.944;5.304;2023-12-20T01:06:30;6.10;99.90
19252;DHT22;9760;50.944;5.304;2023-12-20T01:08:55;6.10;99.90
19252;DHT22;9760;50.944;5.304;2023-12-20T01:11:21;6.10;99.90
19252;DHT22;9760;50.944;5.304;2023-12-20T01:13:47;6.10;99.90
19252;DHT22;9760;50.944;5.304;2023-12-20T01:16:13;6.10;99.90
19252;DHT22;9760;50.944;5.304;2023-12-20T01:18:38;6.10;99.90
19252;DHT22;9760;50.944;5.304;2023-12-20T01:21:04;6.10;99.90
19252;DHT22;9760;50.944;5.304;2023-12-20T01:23:31;6.20;99.90
19252;DHT22;9760;50.944;5.304;2023-12-20T01:25:57;6.10;99.90
19252;DHT22;9760;50.944;5.304;2023-12-20T01:28:25;6.10;99.90
19252;DHT22;9760;50.944;5.304;2023-12-20T01:30:50;6.00;99.90
19252;DHT22;9760;50.944;5.304;2023-12-20T01:33:16;6.00;99.90
19252;DHT22;9760;50.944;5.304;2023-12-20T01:35:42;6.00;99.90
19252;DHT22;9760;50.944;5.304;2023-12-20T01:38:08;5.90;99.90
19252;DHT22;9760;50.944;5.304;2023-12-20T01:40:34;5.90;99.90
19252;DHT22;9760;50.944;5.304;2023-12-20T01:43:01;5.90;99.90
19252;DHT22;9760;50.944;5.304;2023-12-20T01:45:26;5.80;99.90
19252;DHT22;9760;50.944;5.304;2023-12-20T01:47:53;5.80;99.90
19252;DHT22;9760;50.944;5.304;2023-12-20T01:50:19;5.90;99.90
19252;DHT22;9760;50.944;5.304;2023-12-20T01:52:45;5.80;99.90
19252;DHT22;9760;50.944;5.304;2023-12-20T01:55:11;5.80;99.90
19252;DHT22;9760;50.944;5.304;2023-12-20T01:57:41;5.80;99.90
19252;DHT22;9760;50.944;5.304;2023-12-20T02:00:08;5.80;99.90
19252;DHT22;9760;50.944;5.304;2023-12-20T02:02:36;5.80;99.90
19252;DHT22;9760;50.944;5.304;2023-12-20T02:05:05;5.80;99.90
19252;DHT22;9760;50.944;5.304;2023-12-20T02:07:31;5.80;99.90
19252;DHT22;9760;50.944;5.304;2023-12-20T02:09:57;5.80;99.90
19252;DHT22;9760;50.944;5.304;2023-12-20T02:12:23;5.80;99.90
19252;DHT22;9760;50.944;5.304;2023-12-20T02:14:49;5.80;99.90
19252;DHT22;9760;50.944;5.304;2023-12-20T02:17:15;5.80;99.90
19252;DHT22;9760;50.944;5.304;2023-12-20T02:19:41;5.70;99.90
19252;DHT22;9760;50.944;5.304;2023-12-20T02:22:10;5.70;99.90
19252;DHT22;9760;50.944;5.304;2023-12-20T02:24:36;5.70;99.90
19252;DHT22;9760;50.944;5.304;2023-12-20T02:27:03;5.70;99.90
19252;DHT22;9760;50.944;5.304;2023-12-20T02:29:28;5.70;99.90
19252;DHT22;9760;50.944;5.304;2023-12-20T02:31:54;5.70;99.90
19252;DHT22;9760;50.944;5.304;2023-12-20T02:34:20;5.60;99.90
19252;DHT22;9760;50.944;5.304;2023-12-20T02:36:45;5.60;99.90
19252;DHT22;9760;50.944;5.304;2023-12-20T02:39:11;5.60;99.90
19252;DHT22;9760;50.944;5.304;2023-12-20T02:41:36;5.60;99.90
19252;DHT22;9760;50.944;5.304;2023-12-20T02:44:03;5.60;99.90
19252;DHT22;9760;50.944;5.304;2023-12-20T02:46:28;5.60;99.90
19252;DHT22;9760;50.944;5.304;2023-12-20T02:48:54;5.60;99.90
19252;DHT22;9760;50.944;5.304;2023-12-20T02:51:19;5.60;99.90
19252;DHT22;9760;50.944;5.304;2023-12-20T02:53:45;5.60;99.90
19252;DHT22;9760;50.944;5.304;2023-12-20T02:56:11;5.60;99.90
19252;DHT22;9760;50.944;5.304;2023-12-20T02:58:36;5.60;99.90
19252;DHT22;9760;50.944;5.304;2023-12-20T03:01:02;5.60;99.90
19252;DHT22;9760;50.944;5.304;2023-12-20T03:03:28;5.50;99.90
19252;DHT22;9760;50.944;5.304;2023-12-20T03:05:53;5.50;99.90
19252;DHT22;9760;50.944;5.304;2023-12-20T03:08:19;5.60;99.90
19252;DHT22;9760;50.944;5.304;2023-12-20T03:10:45;5.60;99.90
19252;DHT22;9760;50.944;5.304;2023-12-20T03:13:10;5.60;99.90
19252;DHT22;9760;50.944;5.304;2023-12-20T03:15:36;5.60;99.90
19252;DHT22;9760;50.944;5.304;2023-12-20T03:18:02;5.60;99.90
19252;DHT22;9760;50.944;5.304;2023-12-20T03:20:28;5.60;99.90
19252;DHT22;9760;50.944;5.304;2023-12-20T03:22:54;5.60;99.90
19252;DHT22;9760;50.944;5.304;2023-12-20T03:25:19;5.60;99.90
19252;DHT22;9760;50.944;5.304;2023-12-20T03:27:45;5.60;99.90
19252;DHT22;9760;50.944;5.304;2023-12-20T03:30:11;5.60;99.90
19252;DHT22;9760;50.944;5.304;2023-12-20T03:32:38;5.60;99.90
19252;DHT22;9760;50.944;5.304;2023-12-20T03:35:03;5.60;99.90
19252;DHT22;9760;50.944;5.304;2023-12-20T03:37:29;5.60;99.90
19252;DHT22;9760;50.944;5.304;2023-12-20T03:39:55;5.60;99.90
19252;DHT22;9760;50.944;5.304;2023-12-20T03:42:20;5.50;99.90
19252;DHT22;9760;50.944;5.304;2023-12-20T03:44:46;5.60;99.90
19252;DHT22;9760;50.944;5.304;2023-12-20T03:47:12;5.50;99.90
19252;DHT22;9760;50.944;5.304;2023-12-20T03:49:37;5.50;99.90
19252;DHT22;9760;50.944;5.304;2023-12-20T03:52:04;5.50;99.90
19252;DHT22;9760;50.944;5.304;2023-12-20T03:54:30;5.50;99.90
19252;DHT22;9760;50.944;5.304;2023-12-20T03:56:56;5.60;99.90
19252;DHT22;9760;50.944;5.304;2023-12-20T03:59:21;5.60;99.90
19252;DHT22;9760;50.944;5.304;2023-12-20T04:01:47;5.60;99.90
19252;DHT22;9760;50.944;5.304;2023-12-20T04:04:13;5.60;99.90
19252;DHT22;9760;50.944;5.304;2023-12-20T04:06:39;5.60;99.90
19252;DHT22;9760;50.944;5.304;2023-12-20T04:09:05;5.60;99.90
19252;DHT22;9760;50.944;5.304;2023-12-20T04:11:31;5.70;99.90
19252;DHT22;9760;50.944;5.304;2023-12-20T04:13:56;5.70;99.90
19252;DHT22;9760;50.944;5.304;2023-12-20T04:16:22;5.70;99.90
19252;DHT22;9760;50.944;5.304;2023-12-20T04:18:48;5.70;99.90
19252;DHT22;9760;50.944;5.304;2023-12-20T04:21:13;5.80;99.90
19252;DHT22;9760;50.944;5.304;2023-12-20T04:23:39;5.80;99.90
19252;DHT22;9760;50.944;5.304;2023-12-20T04:26:04;5.90;99.90
19252;DHT22;9760;50.944;5.304;2023-12-20T04:28:30;5.90;99.90
19252;DHT22;9760;50.944;5.304;2023-12-20T04:30:56;5.90;99.90
19252;DHT22;9760;50.944;5.304;2023-12-20T04:33:22;5.90;99.90
19252;DHT22;9760;50.944;5.304;2023-12-20T04:35:48;6.00;99.90
19252;DHT22;9760;50.944;5.304;2023-12-20T04:38:13;6.00;99.90
19252;DHT22;9760;50.944;5.304;2023-12-20T04:40:39;6.00;99.90
19252;DHT22;9760;50.944;5.304;2023-12-20T04:43:07;5.90;99.90
19252;DHT22;9760;50.944;5.304;2023-12-20T04:45:33;5.90;99.90
19252;DHT22;9760;50.944;5.304;2023-12-20T04:47:58;5.90;99.90
19252;DHT22;9760;50.944;5.304;2023-12-20T04:50:24;5.90;99.90
19252;DHT22;9760;50.944;5.304;2023-12-20T04:52:50;6.00;99.90
19252;DHT22;9760;50.944;5.304;2023-12-20T04:55:16;5.90;99.90
19252;DHT22;9760;50.944;5.304;2023-12-20T04:57:41;5.90;99.90
19252;DHT22;9760;50.944;5.304;2023-12-20T05:00:08;5.90;99.90
19252;DHT22;9760;50.944;5.304;2023-12-20T05:02:35;5.90;99.90
19252;DHT22;9760;50.944;5.304;2023-12-20T05:05:01;5.90;99.90
19252;DHT22;9760;50.944;5.304;2023-12-20T05:07:26;5.90;99.90
19252;DHT22;9760;50.944;5.304;2023-12-20T05:09:52;5.90;99.90
19252;DHT22;9760;50.944;5.304;2023-12-20T05:12:18;5.90;99.90
19252;DHT22;9760;50.944;5.304;2023-12-20T05:14:43;5.90;99.90
19252;DHT22;9760;50.944;5.304;2023-12-20T05:17:09;5.90;99.90
19252;DHT22;9760;50.944;5.304;2023-12-20T05:19:34;5.80;99.90
19252;DHT22;9760;50.944;5.304;2023-12-20T05:22:01;5.80;99.90
19252;DHT22;9760;50.944;5.304;2023-12-20T05:24:28;5.80;99.90
19252;DHT22;9760;50.944;5.304;2023-12-20T05:26:53;5.80;99.90
19252;DHT22;9760;50.944;5.304;2023-12-20T05:29:19;5.80;99.90
19252;DHT22;9760;50.944;5.304;2023-12-20T05:31:45;5.70;99.90
19252;DHT22;9760;50.944;5.304;2023-12-20T05:34:10;5.70;99.90
19252;DHT22;9760;50.944;5.304;2023-12-20T05:36:36;5.60;99.90
19252;DHT22;9760;50.944;5.304;2023-12-20T05:39:02;5.60;99.90
19252;DHT22;9760;50.944;5.304;2023-12-20T05:41:31;5.60;99.90
19252;DHT22;9760;50.944;5.304;2023-12-20T05:43:57;5.50;99.90
19252;DHT22;9760;50.944;5.304;2023-12-20T05:46:24;5.50;99.90
19252;DHT22;9760;50.944;5.304;2023-12-20T05:48:49;5.50;99.90
19252;DHT22;9760;50.944;5.304;2023-12-20T05:51:17;5.40;99.90
19252;DHT22;9760;50.944;5.304;2023-12-20T05:53:43;5.40;99.90
19252;DHT22;9760;50.944;5.304;2023-12-20T05:56:09;5.40;99.90
19252;DHT22;9760;50.944;5.304;2023-12-20T05:58:35;5.40;99.90
19252;DHT22;9760;50.944;5.304;2023-12-20T06:01:03;5.40;99.90
19252;DHT22;9760;50.944;5.304;2023-12-20T06:03:29;5.30;99.90
19252;DHT22;9760;50.944;5.304;2023-12-20T06:05:54;5.40;99.90
19252;DHT22;9760;50.944;5.304;2023-12-20T06:08:20;5.30;99.90
19252;DHT22;9760;50.944;5.304;2023-12-20T06:10:46;5.30;99.90
19252;DHT22;9760;50.944;5.304;2023-12-20T06:13:11;5.30;99.90
19252;DHT22;9760;50.944;5.304;2023-12-20T06:15:38;5.20;99.90
19252;DHT22;9760;50.944;5.304;2023-12-20T06:18:05;5.20;99.90
19252;DHT22;9760;50.944;5.304;2023-12-20T06:20:32;5.20;99.90
19252;DHT22;9760;50.944;5.304;2023-12-20T06:22:57;5.20;99.90
19252;DHT22;9760;50.944;5.304;2023-12-20T06:25:23;5.20;99.90
19252;DHT22;9760;50.944;5.304;2023-12-20T06:27:48;5.20;99.90
19252;DHT22;9760;50.944;5.304;2023-12-20T06:30:15;5.30;99.90
19252;DHT22;9760;50.944;5.304;2023-12-20T06:32:41;5.30;99.90
19252;DHT22;9760;50.944;5.304;2023-12-20T06:35:10;5.30;99.90
19252;DHT22;9760;50.944;5.304;2023-12-20T06:37:36;5.30;99.90
19252;DHT22;9760;50.944;5.304;2023-12-20T06:40:02;5.40;99.90
19252;DHT22;9760;50.944;5.304;2023-12-20T06:42:27;5.50;99.90
19252;DHT22;9760;50.944;5.304;2023-12-20T06:44:53;5.50;99.90
19252;DHT22;9760;50.944;5.304;2023-12-20T06:47:19;5.50;99.90
19252;DHT22;9760;50.944;5.304;2023-12-20T06:49:44;5.60;99.90
19252;DHT22;9760;50.944;5.304;2023-12-20T06:52:10;5.60;99.90
19252;DHT22;9760;50.944;5.304;2023-12-20T06:54:36;5.60;99.90
19252;DHT22;9760;50.944;5.304;2023-12-20T06:57:01;5.60;99.90
19252;DHT22;9760;50.944;5.304;2023-12-20T06:59:29;5.70;99.90
19252;DHT22;9760;50.944;5.304;2023-12-20T07:01:55;5.70;99.90
19252;DHT22;9760;50.944;5.304;2023-12-20T07:04:20;5.60;99.90
19252;DHT22;9760;50.944;5.304;2023-12-20T07:06:50;5.60;99.90
19252;DHT22;9760;50.944;5.304;2023-12-20T07:09:17;5.60;99.90
19252;DHT22;9760;50.944;5.304;2023-12-20T07:11:43;5.60;99.90
19252;DHT22;9760;50.944;5.304;2023-12-20T07:14:08;5.60;99.90
19252;DHT22;9760;50.944;5.304;2023-12-20T07:16:34;5.50;99.90
19252;DHT22;9760;50.944;5.304;2023-12-20T07:19:00;5.50;99.90
19252;DHT22;9760;50.944;5.304;2023-12-20T07:21:26;5.50;99.90
19252;DHT22;9760;50.944;5.304;2023-12-20T07:23:51;5.50;99.90
19252;DHT22;9760;50.944;5.304;2023-12-20T07:26:17;5.50;99.90
19252;DHT22;9760;50.944;5.304;2023-12-20T07:28:43;5.50;99.90
19252;DHT22;9760;50.944;5.304;2023-12-20T07:31:09;5.40;99.90
19252;DHT22;9760;50.944;5.304;2023-12-20T07:33:34;5.40;99.90
19252;DHT22;9760;50.944;5.304;2023-12-20T07:36:00;5.40;99.90
19252;DHT22;9760;50.944;5.304;2023-12-20T07:38:26;5.40;99.90
19252;DHT22;9760;50.944;5.304;2023-12-20T07:40:52;5.40;99.90
19252;DHT22;9760;50.944;5.304;2023-12-20T07:43:17;5.40;99.90
19252;DHT22;9760;50.944;5.304;2023-12-20T07:45:43;5.40;99.90
19252;DHT22;9760;50.944;5.304;2023-12-20T07:48:09;5.40;99.90
19252;DHT22;9760;50.944;5.304;2023-12-20T07:50:35;5.30;99.90
19252;DHT22;9760;50.944;5.304;2023-12-20T07:53:00;5.30;99.90
19252;DHT22;9760;50.944;5.304;2023-12-20T07:55:27;5.30;99.90
19252;DHT22;9760;50.944;5.304;2023-12-20T07:57:52;5.30;99.90
19252;DHT22;9760;50.944;5.304;2023-12-20T08:00:18;5.30;99.90
19252;DHT22;9760;50.944;5.304;2023-12-20T08:02:44;5.30;99.90
19252;DHT22;9760;50.944;5.304;2023-12-20T08:05:10;5.30;99.90
19252;DHT22;9760;50.944;5.304;2023-12-20T08:07:36;5.20;99.90
19252;DHT22;9760;50.944;5.304;2023-12-20T08:10:02;5.20;99.90
19252;DHT22;9760;50.944;5.304;2023-12-20T08:12:28;5.20;99.90
19252;DHT22;9760;50.944;5.304;2023-12-20T08:14:54;5.20;99.90
19252;DHT22;9760;50.944;5.304;2023-12-20T08:17:20;5.20;99.90
19252;DHT22;9760;50.944;5.304;2023-12-20T08:19:45;5.20;99.90
19252;DHT22;9760;50.944;5.304;2023-12-20T08:22:11;5.20;99.90
19252;DHT22;9760;50.944;5.304;2023-12-20T08:24:38;5.20;99.90
19252;DHT22;9760;50.944;5.304;2023-12-20T08:27:04;5.30;99.90
19252;DHT22;9760;50.944;5.304;2023-12-20T08:29:30;5.40;99.90
19252;DHT22;9760;50.944;5.304;2023-12-20T08:31:56;5.50;99.90
19252;DHT22;9760;50.944;5.304;2023-12-20T08:34:22;5.60;99.90
19252;DHT22;9760;50.944;5.304;2023-12-20T08:36:50;5.70;99.90
19252;DHT22;9760;50.944;5.304;2023-12-20T08:39:15;5.70;99.90
19252;DHT22;9760;50.944;5.304;2023-12-20T08:41:41;5.80;99.90
19252;DHT22;9760;50.944;5.304;2023-12-20T08:44:06;5.80;99.90
19252;DHT22;9760;50.944;5.304;2023-12-20T08:46:32;5.80;99.90
19252;DHT22;9760;50.944;5.304;2023-12-20T08:48:58;5.90;99.90
19252;DHT22;9760;50.944;5.304;2023-12-20T08:51:23;5.90;99.90
19252;DHT22;9760;50.944;5.304;2023-12-20T08:53:51;5.90;99.90
19252;DHT22;9760;50.944;5.304;2023-12-20T08:56:17;5.90;99.90
19252;DHT22;9760;50.944;5.304;2023-12-20T08:58:44;6.00;99.90
19252;DHT22;9760;50.944;5.304;2023-12-20T09:01:09;6.00;99.90
19252;DHT22;9760;50.944;5.304;2023-12-20T09:03:35;6.00;99.90
19252;DHT22;9760;50.944;5.304;2023-12-20T09:06:01;6.00;99.90
19252;DHT22;9760;50.944;5.304;2023-12-20T09:08:26;5.90;99.90
19252;DHT22;9760;50.944;5.304;2023-12-20T09:10:52;5.90;99.90
19252;DHT22;9760;50.944;5.304;2023-12-20T09:13:17;5.90;99.90
19252;DHT22;9760;50.944;5.304;2023-12-20T09:15:43;5.90;99.90
19252;DHT22;9760;50.944;5.304;2023-12-20T09:18:09;5.80;99.90
19252;DHT22;9760;50.944;5.304;2023-12-20T09:20:35;5.90;99.90
19252;DHT22;9760;50.944;5.304;2023-12-20T09:23:01;5.90;99.90
19252;DHT22;9760;50.944;5.304;2023-12-20T09:25:26;5.90;99.90
19252;DHT22;9760;50.944;5.304;2023-12-20T09:27:52;6.00;99.90
19252;DHT22;9760;50.944;5.304;2023-12-20T09:30:18;6.00;99.90
19252;DHT22;9760;50.944;5.304;2023-12-20T09:32:45;6.10;99.90
19252;DHT22;9760;50.944;5.304;2023-12-20T09:35:11;6.10;99.90
19252;DHT22;9760;50.944;5.304;2023-12-20T09:37:36;6.10;99.90
19252;DHT22;9760;50.944;5.304;2023-12-20T09:40:03;6.20;99.90
19252;DHT22;9760;50.944;5.304;2023-12-20T09:42:48;6.30;99.90
19252;DHT22;9760;50.944;5.304;2023-12-20T09:45:20;6.40;99.90
19252;DHT22;9760;50.944;5.304;2023-12-20T09:47:46;6.40;99.90
19252;DHT22;9760;50.944;5.304;2023-12-20T09:50:12;6.40;99.90
19252;DHT22;9760;50.944;5.304;2023-12-20T09:52:39;6.60;99.90
19252;DHT22;9760;50.944;5.304;2023-12-20T09:55:07;6.90;99.90
19252;DHT22;9760;50.944;5.304;2023-12-20T09:57:33;7.20;99.90
19252;DHT22;9760;50.944;5.304;2023-12-20T09:59:59;7.50;99.90
19252;DHT22;9760;50.944;5.304;2023-12-20T10:02:25;7.70;99.90
19252;DHT22;9760;50.944;5.304;2023-12-20T10:04:55;7.70;99.90
19252;DHT22;9760;50.944;5.304;2023-12-20T10:07:21;7.70;99.90
19252;DHT22;9760;50.944;5.304;2023-12-20T10:09:48;7.60;99.90
19252;DHT22;9760;50.944;5.304;2023-12-20T10:12:14;7.60;99.90
19252;DHT22;9760;50.944;5.304;2023-12-20T10:14:39;7.70;99.90
19252;DHT22;9760;50.944;5.304;2023-12-20T10:17:06;7.40;99.90
19252;DHT22;9760;50.944;5.304;2023-12-20T10:19:32;7.30;99.90
19252;DHT22;9760;50.944;5.304;2023-12-20T10:22:04;7.40;99.90
19252;DHT22;9760;50.944;5.304;2023-12-20T10:24:30;7.30;99.90
19252;DHT22;9760;50.944;5.304;2023-12-20T10:29:35;7.20;99.90
19252;DHT22;9760;50.944;5.304;2023-12-20T10:32:26;7.10;99.90
19252;DHT22;9760;50.944;5.304;2023-12-20T10:34:54;7.10;99.90
19252;DHT22;9760;50.944;5.304;2023-12-20T10:37:20;7.10;99.90
19252;DHT22;9760;50.944;5.304;2023-12-20T10:39:53;7.20;99.90
19252;DHT22;9760;50.944;5.304;2023-12-20T10:42:26;7.20;99.90
19252;DHT22;9760;50.944;5.304;2023-12-20T10:44:52;7.20;99.90
19252;DHT22;9760;50.944;5.304;2023-12-20T10:47:20;7.20;99.90
19252;DHT22;9760;50.944;5.304;2023-12-20T10:49:46;7.30;99.90
19252;DHT22;9760;50.944;5.304;2023-12-20T10:52:13;7.30;99.90
19252;DHT22;9760;50.944;5.304;2023-12-20T10:54:41;7.30;99.90
19252;DHT22;9760;50.944;5.304;2023-12-20T10:57:07;7.40;99.90
19252;DHT22;9760;50.944;5.304;2023-12-20T10:59:36;7.50;99.90
19252;DHT22;9760;50.944;5.304;2023-12-20T11:02:03;7.50;99.90
19252;DHT22;9760;50.944;5.304;2023-12-20T11:04:47;7.60;99.90
19252;DHT22;9760;50.944;5.304;2023-12-20T11:09:56;7.70;99.90
19252;DHT22;9760;50.944;5.304;2023-12-20T11:15:16;7.70;99.90
19252;DHT22;9760;50.944;5.304;2023-12-20T11:17:44;7.70;99.90
19252;DHT22;9760;50.944;5.304;2023-12-20T11:20:11;7.70;99.90
19252;DHT22;9760;50.944;5.304;2023-12-20T11:22:38;7.70;99.90
19252;DHT22;9760;50.944;5.304;2023-12-20T11:25:09;7.70;99.90
19252;DHT22;9760;50.944;5.304;2023-12-20T11:27:42;7.70;99.90
19252;DHT22;9760;50.944;5.304;2023-12-20T11:30:11;7.70;99.90
19252;DHT22;9760;50.944;5.304;2023-12-20T11:32:37;7.60;99.90
19252;DHT22;9760;50.944;5.304;2023-12-20T11:37:36;7.70;99.90
19252;DHT22;9760;50.944;5.304;2023-12-20T11:40:07;7.70;99.90
19252;DHT22;9760;50.944;5.304;2023-12-20T11:42:43;7.70;99.90
19252;DHT22;9760;50.944;5.304;2023-12-20T11:45:10;7.60;99.90
19252;DHT22;9760;50.944;5.304;2023-12-20T11:47:36;7.60;99.90
19252;DHT22;9760;50.944;5.304;2023-12-20T11:50:02;7.60;99.90
19252;DHT22;9760;50.944;5.304;2023-12-20T11:52:29;7.60;99.90
19252;DHT22;9760;50.944;5.304;2023-12-20T11:54:56;7.60;99.90
19252;DHT22;9760;50.944;5.304;2023-12-20T11:57:22;7.60;99.90
19252;DHT22;9760;50.944;5.304;2023-12-20T11:59:48;7.60;99.90
19252;DHT22;9760;50.944;5.304;2023-12-20T12:02:13;7.60;99.90
19252;DHT22;9760;50.944;5.304;2023-12-20T12:04:41;7.50;99.90
19252;DHT22;9760;50.944;5.304;2023-12-20T12:07:07;7.40;99.90
19252;DHT22;9760;50.944;5.304;2023-12-20T12:09:34;7.30;99.90
19252;DHT22;9760;50.944;5.304;2023-12-20T12:11:59;7.20;99.90
19252;DHT22;9760;50.944;5.304;2023-12-20T12:14:25;7.20;99.90
19252;DHT22;9760;50.944;5.304;2023-12-20T12:16:51;7.10;99.90
19252;DHT22;9760;50.944;5.304;2023-12-20T12:19:25;7.20;99.90
19252;DHT22;9760;50.944;5.304;2023-12-20T12:22:11;7.20;99.90
19252;DHT22;9760;50.944;5.304;2023-12-20T12:24:46;7.20;99.90
19252;DHT22;9760;50.944;5.304;2023-12-20T12:27:13;7.10;99.90
19252;DHT22;9760;50.944;5.304;2023-12-20T12:29:39;7.10;99.90
19252;DHT22;9760;50.944;5.304;2023-12-20T12:32:09;7.10;99.90
19252;DHT22;9760;50.944;5.304;2023-12-20T12:34:35;7.10;99.90
19252;DHT22;9760;50.944;5.304;2023-12-20T12:37:03;7.20;99.90
19252;DHT22;9760;50.944;5.304;2023-12-20T12:39:29;7.20;99.90
19252;DHT22;9760;50.944;5.304;2023-12-20T12:41:56;7.20;99.90
19252;DHT22;9760;50.944;5.304;2023-12-20T12:44:22;7.20;99.90
19252;DHT22;9760;50.944;5.304;2023-12-20T12:46:50;7.20;99.90
19252;DHT22;9760;50.944;5.304;2023-12-20T12:49:17;7.30;99.90
19252;DHT22;9760;50.944;5.304;2023-12-20T12:51:43;7.30;99.90
19252;DHT22;9760;50.944;5.304;2023-12-20T12:54:09;7.30;99.90
19252;DHT22;9760;50.944;5.304;2023-12-20T12:56:35;7.30;99.90
19252;DHT22;9760;50.944;5.304;2023-12-20T12:59:01;7.30;99.90
19252;DHT22;9760;50.944;5.304;2023-12-20T13:01:27;7.30;99.90
19252;DHT22;9760;50.944;5.304;2023-12-20T13:03:53;7.40;99.90
19252;DHT22;9760;50.944;5.304;2023-12-20T13:06:19;7.30;99.90
19252;DHT22;9760;50.944;5.304;2023-12-20T13:08:45;7.40;99.90
19252;DHT22;9760;50.944;5.304;2023-12-20T13:11:11;7.40;99.90
19252;DHT22;9760;50.944;5.304;2023-12-20T13:13:36;7.40;99.90
19252;DHT22;9760;50.944;5.304;2023-12-20T13:16:02;7.40;99.90
19252;DHT22;9760;50.944;5.304;2023-12-20T13:18:28;7.40;99.90
19252;DHT22;9760;50.944;5.304;2023-12-20T13:20:53;7.40;99.90
19252;DHT22;9760;50.944;5.304;2023-12-20T13:23:19;7.40;99.90
19252;DHT22;9760;50.944;5.304;2023-12-20T13:25:45;7.40;99.90
19252;DHT22;9760;50.944;5.304;2023-12-20T13:28:14;7.50;99.90
19252;DHT22;9760;50.944;5.304;2023-12-20T13:30:39;7.50;99.90
19252;DHT22;9760;50.944;5.304;2023-12-20T13:33:06;7.50;99.90
19252;DHT22;9760;50.944;5.304;2023-12-20T13:35:32;7.50;99.90
19252;DHT22;9760;50.944;5.304;2023-12-20T13:37:58;7.60;99.90
19252;DHT22;9760;50.944;5.304;2023-12-20T13:40:24;7.50;99.90
19252;DHT22;9760;50.944;5.304;2023-12-20T13:42:50;7.50;99.90
19252;DHT22;9760;50.944;5.304;2023-12-20T13:45:16;7.60;99.90
19252;DHT22;9760;50.944;5.304;2023-12-20T13:47:41;7.60;99.90
19252;DHT22;9760;50.944;5.304;2023-12-20T13:50:07;7.70;99.90
19252;DHT22;9760;50.944;5.304;2023-12-20T13:52:33;7.70;99.90
19252;DHT22;9760;50.944;5.304;2023-12-20T13:54:59;7.70;99.90
19252;DHT22;9760;50.944;5.304;2023-12-20T13:57:24;7.70;99.90
19252;DHT22;9760;50.944;5.304;2023-12-20T13:59:50;7.70;99.90
19252;DHT22;9760;50.944;5.304;2023-12-20T14:02:16;7.60;99.90
19252;DHT22;9760;50.944;5.304;2023-12-20T14:04:44;7.60;99.90
19252;DHT22;9760;50.944;5.304;2023-12-20T14:07:10;7.60;99.90
19252;DHT22;9760;50.944;5.304;2023-12-20T14:09:36;7.60;99.90
19252;DHT22;9760;50.944;5.304;2023-12-20T14:12:01;7.60;99.90
19252;DHT22;9760;50.944;5.304;2023-12-20T14:14:27;7.60;99.90
19252;DHT22;9760;50.944;5.304;2023-12-20T14:16:53;7.70;99.90
19252;DHT22;9760;50.944;5.304;2023-12-20T14:19:19;7.70;99.90
19252;DHT22;9760;50.944;5.304;2023-12-20T14:21:44;7.70;99.90
19252;DHT22;9760;50.944;5.304;2023-12-20T14:24:13;7.80;99.90
19252;DHT22;9760;50.944;5.304;2023-12-20T14:26:40;7.70;99.90
19252;DHT22;9760;50.944;5.304;2023-12-20T14:29:06;7.70;99.90
19252;DHT22;9760;50.944;5.304;2023-12-20T14:31:33;7.70;99.90
19252;DHT22;9760;50.944;5.304;2023-12-20T14:33:59;7.70;99.90
19252;DHT22;9760;50.944;5.304;2023-12-20T14:36:26;7.80;99.90
19252;DHT22;9760;50.944;5.304;2023-12-20T14:38:51;7.70;99.90
19252;DHT22;9760;50.944;5.304;2023-12-20T14:41:17;7.80;99.90
19252;DHT22;9760;50.944;5.304;2023-12-20T14:43:44;7.80;99.90
19252;DHT22;9760;50.944;5.304;2023-12-20T14:46:10;7.80;99.90
19252;DHT22;9760;50.944;5.304;2023-12-20T14:48:35;7.80;99.90
19252;DHT22;9760;50.944;5.304;2023-12-20T14:51:01;7.80;99.90
19252;DHT22;9760;50.944;5.304;2023-12-20T14:53:27;7.90;99.90
19252;DHT22;9760;50.944;5.304;2023-12-20T14:55:52;7.90;99.90
19252;DHT22;9760;50.944;5.304;2023-12-20T14:58:18;7.90;99.90
19252;DHT22;9760;50.944;5.304;2023-12-20T15:00:44;7.90;99.90
19252;DHT22;9760;50.944;5.304;2023-12-20T15:03:10;7.90;99.90
19252;DHT22;9760;50.944;5.304;2023-12-20T15:05:36;7.90;99.90
19252;DHT22;9760;50.944;5.304;2023-12-20T15:08:02;7.90;99.90
19252;DHT22;9760;50.944;5.304;2023-12-20T15:10:28;7.90;99.90
19252;DHT22;9760;50.944;5.304;2023-12-20T15:12:53;7.90;99.90
19252;DHT22;9760;50.944;5.304;2023-12-20T15:15:20;7.90;99.90
19252;DHT22;9760;50.944;5.304;2023-12-20T15:17:47;8.00;99.90
19252;DHT22;9760;50.944;5.304;2023-12-20T15:20:12;7.90;99.90
19252;DHT22;9760;50.944;5.304;2023-12-20T15:22:39;8.00;99.90
19252;DHT22;9760;50.944;5.304;2023-12-20T15:25:06;8.00;99.90
19252;DHT22;9760;50.944;5.304;2023-12-20T15:27:34;8.00;99.90
19252;DHT22;9760;50.944;5.304;2023-12-20T15:30:03;8.00;99.90
19252;DHT22;9760;50.944;5.304;2023-12-20T15:32:29;8.00;99.90
19252;DHT22;9760;50.944;5.304;2023-12-20T15:34:54;8.00;99.90
19252;DHT22;9760;50.944;5.304;2023-12-20T15:37:20;8.10;99.90
19252;DHT22;9760;50.944;5.304;2023-12-20T15:39:45;8.10;99.90
19252;DHT22;9760;50.944;5.304;2023-12-20T15:42:11;8.10;99.90
19252;DHT22;9760;50.944;5.304;2023-12-20T15:44:37;8.10;99.90
19252;DHT22;9760;50.944;5.304;2023-12-20T15:47:02;8.10;99.90
19252;DHT22;9760;50.944;5.304;2023-12-20T15:49:28;8.10;99.90
19252;DHT22;9760;50.944;5.304;2023-12-20T15:51:54;8.10;99.90
19252;DHT22;9760;50.944;5.304;2023-12-20T15:54:20;8.10;99.90
19252;DHT22;9760;50.944;5.304;2023-12-20T15:56:45;8.10;99.90
19252;DHT22;9760;50.944;5.304;2023-12-20T15:59:13;8.10;99.90
19252;DHT22;9760;50.944;5.304;2023-12-20T16:01:39;8.10;99.90
19252;DHT22;9760;50.944;5.304;2023-12-20T16:04:04;8.10;99.90
19252;DHT22;9760;50.944;5.304;2023-12-20T16:06:30;8.20;99.90